M\t Procida — IBJT — position and weather

sailwx.info

Track history (hours):
 
Tides and Currents Weather Stations Pressure Air Temp Water Temp Dewpoint Dewpoint Depression Visibility Wind Speed Wind Dir Waves Ship Positions

M\t Procida

Last reported at 2015-Jan-17 00:28 UTC. Time now 2015-Jan-25 14:20 UTC.
Position N 37°42' E 008°54'.
Warning: this ship's position is 8 days out of date.

Length 149 m; draft 6.4 m.

Type: Tanker. MMSI: 247258400.

Date/timePositionNaut miles runAvg speedWind from/ knotsBaromVisibWave heightAir tempDewpointWater temp
2015-Jan-17 00:28N 37°42' E 008°54'12212.3
2015-Jan-16 14:33N 37°38' E 011°28'10412.7
2015-Jan-16 06:23N 37°03' E 013°31'1012.7
2015-Jan-16 05:33N 36°58' E 013°43'1312.8
2015-Jan-16 04:34N 36°52' E 013°57'1312.5
2015-Jan-16 03:34N 36°46' E 014°11'1212.2
2015-Jan-16 02:34N 36°41' E 014°24'1212.3
2015-Jan-16 01:34N 36°38' E 014°39'1212.2
2015-Jan-16 00:34N 36°36' E 014°54'1211.9
2015-Jan-15 23:34N 36°35' E 015°09'  
2015-Jan-07 16:12N 38°20' E 016°43'1111.5
2015-Jan-07 15:15N 38°13' E 016°33'37 9.8
2015-Jan-07 11:26N 37°51' E 015°54'18 9.0
2015-Jan-07 09:27N 38°01' E 015°35'9 9.2
2015-Jan-07 08:26N 38°11' E 015°35'  
Track history (hours):
 
Tides and Currents Weather Stations Pressure Air Temp Water Temp Dewpoint Dewpoint Depression Visibility Wind Speed Wind Dir Waves Ship Positions

M\t Procida

Last reported at 2015-Jan-17 00:28 UTC. Time now 2015-Jan-25 14:20 UTC.
Position N 37°42' E 008°54'.
Warning: this ship's position is 8 days out of date.

Length 149 m; draft 6.4 m.

Type: Tanker. MMSI: 247258400.

Date/timePositionNaut miles runAvg speedWind from/ knotsBaromVisibWave heightAir tempDewpointWater temp
2015-Jan-17 00:28N 37°42' E 008°54'12212.3
2015-Jan-16 14:33N 37°38' E 011°28'10412.7
2015-Jan-16 06:23N 37°03' E 013°31'1012.7
2015-Jan-16 05:33N 36°58' E 013°43'1312.8
2015-Jan-16 04:34N 36°52' E 013°57'1312.5
2015-Jan-16 03:34N 36°46' E 014°11'1212.2
2015-Jan-16 02:34N 36°41' E 014°24'1212.3
2015-Jan-16 01:34N 36°38' E 014°39'1212.2
2015-Jan-16 00:34N 36°36' E 014°54'1211.9
2015-Jan-15 23:34N 36°35' E 015°09'  
2015-Jan-07 16:12N 38°20' E 016°43'1111.5
2015-Jan-07 15:15N 38°13' E 016°33'37 9.8
2015-Jan-07 11:26N 37°51' E 015°54'18 9.0
2015-Jan-07 09:27N 38°01' E 015°35'9 9.2
2015-Jan-07 08:26N 38°11' E 015°35'  

Dump ship's entire track history